sensor_id;sensor_type;location;lat;lon;timestamp;pressure;altitude;pressure_sealevel;temperature;humidity
68889;BME280;55930;47.412;8.790;2023-10-19T00:00:55;93325.78;;;9.42;100.00
68889;BME280;55930;47.412;8.790;2023-10-19T00:04:16;93311.84;;;9.31;100.00
68889;BME280;55930;47.412;8.790;2023-10-19T00:07:36;93305.09;;;9.35;100.00
68889;BME280;55930;47.412;8.790;2023-10-19T00:10:57;93300.06;;;9.48;100.00
68889;BME280;55930;47.412;8.790;2023-10-19T00:14:28;93292.59;;;9.52;100.00
68889;BME280;55930;47.412;8.790;2023-10-19T00:17:54;93291.63;;;9.55;100.00
68889;BME280;55930;47.412;8.790;2023-10-19T00:21:16;93298.59;;;9.58;100.00
68889;BME280;55930;47.412;8.790;2023-10-19T00:24:39;93307.50;;;9.67;100.00
68889;BME280;55930;47.412;8.790;2023-10-19T00:28:01;93300.53;;;9.64;100.00
68889;BME280;55930;47.412;8.790;2023-10-19T00:31:26;93291.16;;;9.57;100.00
68889;BME280;55930;47.412;8.790;2023-10-19T00:34:54;93286.31;;;9.67;100.00
68889;BME280;55930;47.412;8.790;2023-10-19T00:38:17;93295.47;;;9.66;100.00
68889;BME280;55930;47.412;8.790;2023-10-19T00:41:58;93303.66;;;9.56;100.00
68889;BME280;55930;47.412;8.790;2023-10-19T00:45:18;93300.78;;;9.49;100.00
68889;BME280;55930;47.412;8.790;2023-10-19T00:48:56;93303.91;;;9.70;100.00
68889;BME280;55930;47.412;8.790;2023-10-19T00:52:22;93289.22;;;9.69;100.00
68889;BME280;55930;47.412;8.790;2023-10-19T00:55:45;93291.38;;;9.76;100.00
68889;BME280;55930;47.412;8.790;2023-10-19T00:59:06;93281.25;;;9.80;100.00
68889;BME280;55930;47.412;8.790;2023-10-19T01:02:39;93272.38;;;9.60;100.00
68889;BME280;55930;47.412;8.790;2023-10-19T01:06:08;93287.53;;;9.54;100.00
68889;BME280;55930;47.412;8.790;2023-10-19T01:09:33;93289.22;;;9.57;100.00
68889;BME280;55930;47.412;8.790;2023-10-19T01:12:56;93290.44;;;9.45;100.00
68889;BME280;55930;47.412;8.790;2023-10-19T01:16:19;93291.88;;;9.46;100.00
68889;BME280;55930;47.412;8.790;2023-10-19T01:19:42;93281.53;;;9.48;100.00
68889;BME280;55930;47.412;8.790;2023-10-19T01:23:07;93278.41;;;9.55;100.00
68889;BME280;55930;47.412;8.790;2023-10-19T01:26:28;93272.38;;;9.49;100.00
68889;BME280;55930;47.412;8.790;2023-10-19T01:29:48;93271.41;;;9.58;100.00
68889;BME280;55930;47.412;8.790;2023-10-19T01:33:14;93267.31;;;9.51;100.00
68889;BME280;55930;47.412;8.790;2023-10-19T01:36:38;93253.38;;;9.45;100.00
68889;BME280;55930;47.412;8.790;2023-10-19T01:40:05;93253.13;;;9.38;100.00
68889;BME280;55930;47.412;8.790;2023-10-19T01:43:26;93257.72;;;9.48;100.00
68889;BME280;55930;47.412;8.790;2023-10-19T01:47:00;93245.91;;;9.38;100.00
68889;BME280;55930;47.412;8.790;2023-10-19T01:50:20;93238.22;;;9.40;100.00
68889;BME280;55930;47.412;8.790;2023-10-19T01:53:41;93236.78;;;9.39;100.00
68889;BME280;55930;47.412;8.790;2023-10-19T01:57:05;93235.09;;;9.47;100.00
68889;BME280;55930;47.412;8.790;2023-10-19T02:00:25;93228.56;;;9.43;100.00
68889;BME280;55930;47.412;8.790;2023-10-19T02:03:49;93229.78;;;9.42;100.00
68889;BME280;55930;47.412;8.790;2023-10-19T02:07:14;93221.59;;;9.45;100.00
68889;BME280;55930;47.412;8.790;2023-10-19T02:10:38;93229.53;;;9.56;100.00
68889;BME280;55930;47.412;8.790;2023-10-19T02:14:02;93202.59;;;9.52;100.00
68889;BME280;55930;47.412;8.790;2023-10-19T02:17:25;93203.06;;;9.62;100.00
68889;BME280;55930;47.412;8.790;2023-10-19T02:20:45;93201.13;;;9.63;100.00
68889;BME280;55930;47.412;8.790;2023-10-19T02:24:09;93205.41;;;9.77;100.00
68889;BME280;55930;47.412;8.790;2023-10-19T02:27:34;93210.47;;;9.86;100.00
68889;BME280;55930;47.412;8.790;2023-10-19T02:30:55;93214.75;;;9.94;100.00
68889;BME280;55930;47.412;8.790;2023-10-19T02:34:15;93203.25;;;9.81;100.00
68889;BME280;55930;47.412;8.790;2023-10-19T02:37:35;93198.66;;;9.87;100.00
68889;BME280;55930;47.412;8.790;2023-10-19T02:40:58;93190.94;;;9.89;100.00
68889;BME280;55930;47.412;8.790;2023-10-19T02:44:20;93188.03;;;9.92;100.00
68889;BME280;55930;47.412;8.790;2023-10-19T02:47:46;93169.50;;;9.92;100.00
68889;BME280;55930;47.412;8.790;2023-10-19T02:51:06;93157.72;;;9.88;100.00
68889;BME280;55930;47.412;8.790;2023-10-19T02:54:31;93178.59;;;10.08;100.00
68889;BME280;55930;47.412;8.790;2023-10-19T02:57:54;93201.19;;;10.26;100.00
68889;BME280;55930;47.412;8.790;2023-10-19T03:01:21;93212.16;;;10.52;100.00
68889;BME280;55930;47.412;8.790;2023-10-19T03:04:42;93206.00;;;10.74;100.00
68889;BME280;55930;47.412;8.790;2023-10-19T03:08:03;93197.34;;;10.68;100.00
68889;BME280;55930;47.412;8.790;2023-10-19T03:11:27;93191.81;;;10.19;100.00
68889;BME280;55930;47.412;8.790;2023-10-19T03:14:48;93181.00;;;10.06;100.00
68889;BME280;55930;47.412;8.790;2023-10-19T03:18:09;93175.47;;;10.04;100.00
68889;BME280;55930;47.412;8.790;2023-10-19T03:21:30;93177.16;;;10.02;100.00
68889;BME280;55930;47.412;8.790;2023-10-19T03:24:56;93169.94;;;10.02;100.00
68889;BME280;55930;47.412;8.790;2023-10-19T03:28:40;93176.94;;;10.05;100.00
68889;BME280;55930;47.412;8.790;2023-10-19T03:32:01;93179.38;;;9.92;100.00
68889;BME280;55930;47.412;8.790;2023-10-19T03:35:21;93176.72;;;9.97;100.00
68889;BME280;55930;47.412;8.790;2023-10-19T03:38:42;93173.53;;;10.10;100.00
68889;BME280;55930;47.412;8.790;2023-10-19T03:42:04;93169.38;;;10.26;100.00
68889;BME280;55930;47.412;8.790;2023-10-19T03:45:28;93165.78;;;10.23;100.00
68889;BME280;55930;47.412;8.790;2023-10-19T03:48:55;93161.16;;;10.35;100.00
68889;BME280;55930;47.412;8.790;2023-10-19T03:52:19;93159.13;;;10.52;100.00
68889;BME280;55930;47.412;8.790;2023-10-19T03:55:39;93151.66;;;10.51;100.00
68889;BME280;55930;47.412;8.790;2023-10-19T03:59:03;93155.47;;;10.09;100.00
68889;BME280;55930;47.412;8.790;2023-10-19T04:02:26;93152.88;;;9.97;100.00
68889;BME280;55930;47.412;8.790;2023-10-19T04:05:55;93146.06;;;10.08;100.00
68889;BME280;55930;47.412;8.790;2023-10-19T04:09:15;93137.78;;;10.33;100.00
68889;BME280;55930;47.412;8.790;2023-10-19T04:12:39;93137.25;;;10.41;100.00
68889;BME280;55930;47.412;8.790;2023-10-19T04:16:03;93138.56;;;10.23;100.00
68889;BME280;55930;47.412;8.790;2023-10-19T04:19:23;93139.03;;;10.16;100.00
68889;BME280;55930;47.412;8.790;2023-10-19T04:22:45;93143.13;;;10.22;100.00
68889;BME280;55930;47.412;8.790;2023-10-19T04:26:06;93134.41;;;10.33;100.00
68889;BME280;55930;47.412;8.790;2023-10-19T04:29:34;93132.59;;;10.52;100.00
68889;BME280;55930;47.412;8.790;2023-10-19T04:32:55;93134.25;;;10.61;100.00
68889;BME280;55930;47.412;8.790;2023-10-19T04:36:18;93122.56;;;10.75;100.00
68889;BME280;55930;47.412;8.790;2023-10-19T04:39:41;93129.19;;;10.93;100.00
68889;BME280;55930;47.412;8.790;2023-10-19T04:43:03;93122.13;;;10.95;100.00
68889;BME280;55930;47.412;8.790;2023-10-19T04:46:26;93116.34;;;10.97;100.00
68889;BME280;55930;47.412;8.790;2023-10-19T04:49:49;93112.53;;;10.92;100.00
68889;BME280;55930;47.412;8.790;2023-10-19T04:53:09;93110.06;;;11.00;100.00
68889;BME280;55930;47.412;8.790;2023-10-19T04:56:30;93107.00;;;10.90;100.00
68889;BME280;55930;47.412;8.790;2023-10-19T04:59:53;93097.78;;;10.97;100.00
68889;BME280;55930;47.412;8.790;2023-10-19T05:03:13;93097.00;;;11.02;100.00
68889;BME280;55930;47.412;8.790;2023-10-19T05:06:38;93088.88;;;11.19;100.00
68889;BME280;55930;47.412;8.790;2023-10-19T05:09:59;93087.16;;;11.21;100.00
68889;BME280;55930;47.412;8.790;2023-10-19T05:13:21;93085.72;;;11.20;100.00
68889;BME280;55930;47.412;8.790;2023-10-19T05:16:41;93077.28;;;11.22;100.00
68889;BME280;55930;47.412;8.790;2023-10-19T05:20:02;93078.31;;;11.37;100.00
68889;BME280;55930;47.412;8.790;2023-10-19T05:23:26;93076.59;;;11.40;100.00
68889;BME280;55930;47.412;8.790;2023-10-19T05:26:48;93078.81;;;11.36;100.00
68889;BME280;55930;47.412;8.790;2023-10-19T05:30:09;93071.41;;;11.29;100.00
68889;BME280;55930;47.412;8.790;2023-10-19T05:33:30;93070.69;;;11.28;100.00
68889;BME280;55930;47.412;8.790;2023-10-19T05:36:51;93063.22;;;11.27;100.00
68889;BME280;55930;47.412;8.790;2023-10-19T05:40:12;93069.97;;;11.28;100.00
68889;BME280;55930;47.412;8.790;2023-10-19T05:43:37;93057.16;;;11.32;100.00
68889;BME280;55930;47.412;8.790;2023-10-19T05:46:58;93065.53;;;11.36;100.00
68889;BME280;55930;47.412;8.790;2023-10-19T05:50:19;93056.13;;;11.35;100.00
68889;BME280;55930;47.412;8.790;2023-10-19T05:53:39;93047.50;;;11.29;100.00
68889;BME280;55930;47.412;8.790;2023-10-19T05:57:04;93049.22;;;11.26;100.00
68889;BME280;55930;47.412;8.790;2023-10-19T06:00:28;93044.97;;;11.18;100.00
68889;BME280;55930;47.412;8.790;2023-10-19T06:03:49;93057.72;;;11.25;100.00
68889;BME280;55930;47.412;8.790;2023-10-19T06:07:09;93048.25;;;11.29;100.00
68889;BME280;55930;47.412;8.790;2023-10-19T06:10:29;93037.56;;;11.35;100.00
68889;BME280;55930;47.412;8.790;2023-10-19T06:13:50;93034.84;;;11.40;100.00
68889;BME280;55930;47.412;8.790;2023-10-19T06:17:11;93032.34;;;11.48;100.00
68889;BME280;55930;47.412;8.790;2023-10-19T06:20:33;93028.09;;;11.58;100.00
68889;BME280;55930;47.412;8.790;2023-10-19T06:23:53;93032.75;;;11.52;100.00
68889;BME280;55930;47.412;8.790;2023-10-19T06:27:14;93029.25;;;11.63;100.00
68889;BME280;55930;47.412;8.790;2023-10-19T06:30:35;93031.44;;;11.83;100.00
68889;BME280;55930;47.412;8.790;2023-10-19T06:33:55;93025.53;;;11.90;100.00
68889;BME280;55930;47.412;8.790;2023-10-19T06:37:17;93028.88;;;11.96;100.00
68889;BME280;55930;47.412;8.790;2023-10-19T06:40:37;93029.00;;;12.04;100.00
68889;BME280;55930;47.412;8.790;2023-10-19T06:44:00;93022.16;;;12.08;100.00
68889;BME280;55930;47.412;8.790;2023-10-19T06:47:21;93021.56;;;12.15;100.00
68889;BME280;55930;47.412;8.790;2023-10-19T06:50:43;93022.72;;;12.20;100.00
68889;BME280;55930;47.412;8.790;2023-10-19T06:54:05;93025.38;;;12.20;100.00
68889;BME280;55930;47.412;8.790;2023-10-19T06:57:28;93019.22;;;12.12;100.00
68889;BME280;55930;47.412;8.790;2023-10-19T07:00:48;93017.78;;;12.11;100.00
68889;BME280;55930;47.412;8.790;2023-10-19T07:04:16;93022.84;;;12.27;100.00
68889;BME280;55930;47.412;8.790;2023-10-19T07:07:39;93020.31;;;12.35;100.00
68889;BME280;55930;47.412;8.790;2023-10-19T07:11:00;93013.78;;;12.36;100.00
68889;BME280;55930;47.412;8.790;2023-10-19T07:14:23;93011.53;;;12.40;100.00
68889;BME280;55930;47.412;8.790;2023-10-19T07:17:44;93013.09;;;12.49;100.00
68889;BME280;55930;47.412;8.790;2023-10-19T07:21:05;93012.38;;;12.48;100.00
68889;BME280;55930;47.412;8.790;2023-10-19T07:24:29;93011.47;;;12.59;100.00
68889;BME280;55930;47.412;8.790;2023-10-19T07:27:52;93019.97;;;12.57;100.00
68889;BME280;55930;47.412;8.790;2023-10-19T07:31:12;93019.31;;;12.83;100.00
68889;BME280;55930;47.412;8.790;2023-10-19T07:34:35;93022.06;;;13.04;100.00
68889;BME280;55930;47.412;8.790;2023-10-19T07:37:55;93021.28;;;13.22;100.00
68889;BME280;55930;47.412;8.790;2023-10-19T07:41:16;93017.09;;;13.14;100.00
68889;BME280;55930;47.412;8.790;2023-10-19T07:44:37;93006.31;;;13.19;100.00
68889;BME280;55930;47.412;8.790;2023-10-19T07:47:58;92998.94;;;13.25;100.00
68889;BME280;55930;47.412;8.790;2023-10-19T07:51:26;92996.59;;;13.22;100.00
68889;BME280;55930;47.412;8.790;2023-10-19T07:54:46;92989.81;;;13.34;100.00
68889;BME280;55930;47.412;8.790;2023-10-19T07:58:07;93000.47;;;13.34;100.00
68889;BME280;55930;47.412;8.790;2023-10-19T08:01:27;92989.56;;;13.58;100.00
68889;BME280;55930;47.412;8.790;2023-10-19T08:04:48;92982.25;;;13.85;100.00
68889;BME280;55930;47.412;8.790;2023-10-19T08:08:09;92972.72;;;13.76;100.00
68889;BME280;55930;47.412;8.790;2023-10-19T08:11:31;92971.78;;;13.53;100.00
68889;BME280;55930;47.412;8.790;2023-10-19T08:14:53;92962.91;;;13.71;100.00
68889;BME280;55930;47.412;8.790;2023-10-19T08:18:16;92968.03;;;14.03;100.00
68889;BME280;55930;47.412;8.790;2023-10-19T08:21:36;92949.97;;;14.51;100.00
68889;BME280;55930;47.412;8.790;2023-10-19T08:24:57;92948.81;;;15.24;100.00
68889;BME280;55930;47.412;8.790;2023-10-19T08:28:18;92935.84;;;15.94;100.00
68889;BME280;55930;47.412;8.790;2023-10-19T08:31:40;92929.81;;;16.17;100.00
68889;BME280;55930;47.412;8.790;2023-10-19T08:35:01;92935.34;;;16.03;100.00
68889;BME280;55930;47.412;8.790;2023-10-19T08:38:21;92921.25;;;16.11;100.00
68889;BME280;55930;47.412;8.790;2023-10-19T08:41:44;92909.78;;;15.72;100.00
68889;BME280;55930;47.412;8.790;2023-10-19T08:45:04;92911.19;;;15.14;100.00
68889;BME280;55930;47.412;8.790;2023-10-19T08:48:28;92931.00;;;14.90;100.00
68889;BME280;55930;47.412;8.790;2023-10-19T08:51:51;92944.53;;;14.64;100.00
68889;BME280;55930;47.412;8.790;2023-10-19T08:55:11;92946.34;;;14.98;100.00
68889;BME280;55930;47.412;8.790;2023-10-19T08:58:34;92925.66;;;15.70;100.00
68889;BME280;55930;47.412;8.790;2023-10-19T09:02:02;92909.53;;;18.27;100.00
68889;BME280;55930;47.412;8.790;2023-10-19T09:05:23;92879.78;;;21.88;93.10
68889;BME280;55930;47.412;8.790;2023-10-19T09:08:47;92874.22;;;19.24;98.12
68889;BME280;55930;47.412;8.790;2023-10-19T09:12:08;92873.97;;;18.61;100.00
68889;BME280;55930;47.412;8.790;2023-10-19T09:15:30;92880.56;;;18.85;100.00
68889;BME280;55930;47.412;8.790;2023-10-19T09:18:57;92856.47;;;19.82;95.97
68889;BME280;55930;47.412;8.790;2023-10-19T09:22:20;92849.50;;;20.81;91.03
68889;BME280;55930;47.412;8.790;2023-10-19T09:25:42;92841.56;;;21.12;93.28
68889;BME280;55930;47.412;8.790;2023-10-19T09:29:05;92816.06;;;24.83;69.53
68889;BME280;55930;47.412;8.790;2023-10-19T09:32:25;92813.91;;;25.95;62.97
68889;BME280;55930;47.412;8.790;2023-10-19T09:35:48;92806.19;;;26.57;60.36
68889;BME280;55930;47.412;8.790;2023-10-19T09:39:10;92800.66;;;26.28;58.08
68889;BME280;55930;47.412;8.790;2023-10-19T09:42:33;92783.22;;;28.25;53.75
68889;BME280;55930;47.412;8.790;2023-10-19T09:45:56;92765.34;;;31.46;45.72
68889;BME280;55930;47.412;8.790;2023-10-19T09:49:20;92777.16;;;23.48;64.25
68889;BME280;55930;47.412;8.790;2023-10-19T09:52:41;92768.28;;;24.64;61.80
68889;BME280;55930;47.412;8.790;2023-10-19T09:56:03;92769.41;;;23.54;64.49
68889;BME280;55930;47.412;8.790;2023-10-19T09:59:28;92767.84;;;22.52;70.29
68889;BME280;55930;47.412;8.790;2023-10-19T10:02:51;92757.53;;;22.49;70.29
68889;BME280;55930;47.412;8.790;2023-10-19T10:06:12;92766.47;;;21.68;75.04
68889;BME280;55930;47.412;8.790;2023-10-19T10:09:41;92769.28;;;23.08;70.35
68889;BME280;55930;47.412;8.790;2023-10-19T10:16:44;92782.00;;;22.20;71.21
68889;BME280;55930;47.412;8.790;2023-10-19T10:23:40;92724.03;;;33.23;40.73
68889;BME280;55930;47.412;8.790;2023-10-19T10:27:01;92723.28;;;30.92;43.93
68889;BME280;55930;47.412;8.790;2023-10-19T10:30:23;92734.38;;;31.41;42.64
68889;BME280;55930;47.412;8.790;2023-10-19T10:33:50;92730.84;;;32.36;40.86
68889;BME280;55930;47.412;8.790;2023-10-19T10:37:12;92734.00;;;26.70;54.53
68889;BME280;55930;47.412;8.790;2023-10-19T10:40:52;92731.66;;;31.41;42.70
68889;BME280;55930;47.412;8.790;2023-10-19T10:44:13;92749.03;;;27.30;49.61
68889;BME280;55930;47.412;8.790;2023-10-19T10:47:35;92746.38;;;25.75;55.20
68889;BME280;55930;47.412;8.790;2023-10-19T10:50:57;92746.78;;;25.70;55.63
68889;BME280;55930;47.412;8.790;2023-10-19T10:54:21;92751.78;;;26.44;51.50
68889;BME280;55930;47.412;8.790;2023-10-19T10:57:44;92757.44;;;25.40;55.36
68889;BME280;55930;47.412;8.790;2023-10-19T11:01:05;92750.41;;;24.36;57.53
68889;BME280;55930;47.412;8.790;2023-10-19T11:04:25;92730.16;;;30.29;45.08
68889;BME280;55930;47.412;8.790;2023-10-19T11:11:39;92721.41;;;24.50;56.14
68889;BME280;55930;47.412;8.790;2023-10-19T11:15:00;92703.63;;;31.21;43.24
68889;BME280;55930;47.412;8.790;2023-10-19T11:18:35;92697.31;;;31.88;40.32
68889;BME280;55930;47.412;8.790;2023-10-19T11:21:55;92689.19;;;29.72;43.41
68889;BME280;55930;47.412;8.790;2023-10-19T11:25:20;92701.78;;;24.15;58.58
68889;BME280;55930;47.412;8.790;2023-10-19T11:28:41;92700.31;;;22.31;64.01
68889;BME280;55930;47.412;8.790;2023-10-19T11:32:07;92704.41;;;21.68;68.60
68889;BME280;55930;47.412;8.790;2023-10-19T11:35:31;92699.03;;;21.28;70.48
68889;BME280;55930;47.412;8.790;2023-10-19T11:38:52;92689.03;;;22.02;70.44
68889;BME280;55930;47.412;8.790;2023-10-19T11:42:13;92692.34;;;22.12;68.34
68889;BME280;55930;47.412;8.790;2023-10-19T11:45:33;92695.00;;;22.55;69.28
68889;BME280;55930;47.412;8.790;2023-10-19T11:48:55;92690.69;;;24.11;63.51
68889;BME280;55930;47.412;8.790;2023-10-19T11:52:18;92686.25;;;24.03;60.07
68889;BME280;55930;47.412;8.790;2023-10-19T11:55:39;92690.25;;;21.80;68.21
68889;BME280;55930;47.412;8.790;2023-10-19T11:59:02;92680.63;;;23.88;61.73
68889;BME280;55930;47.412;8.790;2023-10-19T12:02:22;92679.50;;;22.22;63.85
68889;BME280;55930;47.412;8.790;2023-10-19T12:05:42;92681.84;;;22.49;63.27
68889;BME280;55930;47.412;8.790;2023-10-19T12:09:04;92676.84;;;20.89;70.74
68889;BME280;55930;47.412;8.790;2023-10-19T12:12:38;92670.88;;;20.90;71.74
68889;BME280;55930;47.412;8.790;2023-10-19T12:15:58;92662.56;;;20.67;72.98
68889;BME280;55930;47.412;8.790;2023-10-19T12:19:19;92656.81;;;20.92;72.08
68889;BME280;55930;47.412;8.790;2023-10-19T12:22:41;92659.03;;;25.01;61.98
68889;BME280;55930;47.412;8.790;2023-10-19T12:26:02;92657.94;;;23.58;61.13
68889;BME280;55930;47.412;8.790;2023-10-19T12:29:25;92666.97;;;22.27;65.27
68889;BME280;55930;47.412;8.790;2023-10-19T12:32:45;92657.13;;;25.83;57.66
68889;BME280;55930;47.412;8.790;2023-10-19T12:36:09;92655.16;;;26.86;50.87
68889;BME280;55930;47.412;8.790;2023-10-19T12:39:51;92649.06;;;23.92;57.40
68889;BME280;55930;47.412;8.790;2023-10-19T12:43:13;92641.88;;;26.78;51.81
68889;BME280;55930;47.412;8.790;2023-10-19T12:46:34;92632.22;;;26.03;52.65
68889;BME280;55930;47.412;8.790;2023-10-19T12:49:56;92642.22;;;24.40;58.86
68889;BME280;55930;47.412;8.790;2023-10-19T12:53:17;92641.06;;;23.94;60.89
68889;BME280;55930;47.412;8.790;2023-10-19T12:56:37;92631.47;;;22.65;67.77
68889;BME280;55930;47.412;8.790;2023-10-19T12:59:59;92627.19;;;21.96;71.03
68889;BME280;55930;47.412;8.790;2023-10-19T13:03:43;92620.41;;;22.17;73.29
68889;BME280;55930;47.412;8.790;2023-10-19T13:07:05;92619.31;;;24.94;64.32
68889;BME280;55930;47.412;8.790;2023-10-19T13:10:28;92619.06;;;24.51;63.62
68889;BME280;55930;47.412;8.790;2023-10-19T13:13:52;92608.28;;;25.99;58.70
68889;BME280;55930;47.412;8.790;2023-10-19T13:17:12;92607.28;;;25.10;57.42
68889;BME280;55930;47.412;8.790;2023-10-19T13:20:33;92601.44;;;21.62;68.95
68889;BME280;55930;47.412;8.790;2023-10-19T13:23:56;92584.97;;;22.78;69.41
68889;BME280;55930;47.412;8.790;2023-10-19T13:27:20;92581.13;;;23.05;67.78
68889;BME280;55930;47.412;8.790;2023-10-19T13:30:45;92592.66;;;22.49;72.71
68889;BME280;55930;47.412;8.790;2023-10-19T13:34:07;92578.97;;;22.92;70.67
68889;BME280;55930;47.412;8.790;2023-10-19T13:37:30;92575.44;;;23.24;67.18
68889;BME280;55930;47.412;8.790;2023-10-19T13:40:53;92572.63;;;23.10;69.05
68889;BME280;55930;47.412;8.790;2023-10-19T13:44:13;92591.47;;;22.40;71.48
68889;BME280;55930;47.412;8.790;2023-10-19T13:47:34;92581.50;;;22.55;70.58
68889;BME280;55930;47.412;8.790;2023-10-19T13:50:54;92566.66;;;22.44;72.01
68889;BME280;55930;47.412;8.790;2023-10-19T13:54:20;92569.72;;;22.38;72.46
68889;BME280;55930;47.412;8.790;2023-10-19T13:57:41;92543.53;;;23.57;68.59
68889;BME280;55930;47.412;8.790;2023-10-19T14:01:06;92547.72;;;23.12;69.58
68889;BME280;55930;47.412;8.790;2023-10-19T14:04:29;92554.50;;;21.89;74.85
68889;BME280;55930;47.412;8.790;2023-10-19T14:07:53;92559.59;;;21.73;75.13
68889;BME280;55930;47.412;8.790;2023-10-19T14:11:15;92560.38;;;21.85;76.77
68889;BME280;55930;47.412;8.790;2023-10-19T14:14:36;92556.44;;;21.55;77.70
68889;BME280;55930;47.412;8.790;2023-10-19T14:17:59;92562.34;;;21.63;77.90
68889;BME280;55930;47.412;8.790;2023-10-19T14:21:20;92542.28;;;24.09;68.13
68889;BME280;55930;47.412;8.790;2023-10-19T14:24:43;92535.06;;;24.14;66.56
68889;BME280;55930;47.412;8.790;2023-10-19T14:28:06;92519.69;;;23.19;68.48
68889;BME280;55930;47.412;8.790;2023-10-19T14:31:27;92495.25;;;22.70;72.44
68889;BME280;55930;47.412;8.790;2023-10-19T14:34:47;92481.47;;;22.20;73.86
68889;BME280;55930;47.412;8.790;2023-10-19T14:38:07;92470.16;;;21.67;76.06
68889;BME280;55930;47.412;8.790;2023-10-19T14:41:29;92468.81;;;20.71;80.87
68889;BME280;55930;47.412;8.790;2023-10-19T14:44:50;92467.25;;;20.27;86.59
68889;BME280;55930;47.412;8.790;2023-10-19T14:48:10;92456.72;;;20.10;87.66
68889;BME280;55930;47.412;8.790;2023-10-19T14:51:31;92447.69;;;20.68;83.87
68889;BME280;55930;47.412;8.790;2023-10-19T14:54:56;92437.03;;;20.48;82.30
68889;BME280;55930;47.412;8.790;2023-10-19T14:58:17;92428.41;;;20.00;85.29
68889;BME280;55930;47.412;8.790;2023-10-19T15:01:38;92421.94;;;19.74;87.42
68889;BME280;55930;47.412;8.790;2023-10-19T15:04:58;92420.00;;;19.36;88.91
68889;BME280;55930;47.412;8.790;2023-10-19T15:08:19;92424.38;;;19.02;90.81
68889;BME280;55930;47.412;8.790;2023-10-19T15:11:39;92414.75;;;18.90;93.51
68889;BME280;55930;47.412;8.790;2023-10-19T15:15:02;92409.91;;;18.69;95.69
68889;BME280;55930;47.412;8.790;2023-10-19T15:18:23;92400.69;;;18.43;96.57
68889;BME280;55930;47.412;8.790;2023-10-19T15:21:44;92401.56;;;18.09;98.06
68889;BME280;55930;47.412;8.790;2023-10-19T15:25:05;92398.63;;;18.24;99.51
68889;BME280;55930;47.412;8.790;2023-10-19T15:28:29;92403.91;;;17.95;100.00
68889;BME280;55930;47.412;8.790;2023-10-19T15:31:55;92413.50;;;17.98;100.00
68889;BME280;55930;47.412;8.790;2023-10-19T15:35:17;92407.22;;;17.77;100.00
68889;BME280;55930;47.412;8.790;2023-10-19T15:38:47;92407.84;;;17.68;100.00
68889;BME280;55930;47.412;8.790;2023-10-19T15:42:12;92392.22;;;17.47;100.00
68889;BME280;55930;47.412;8.790;2023-10-19T15:45:32;92391.88;;;17.16;100.00
68889;BME280;55930;47.412;8.790;2023-10-19T15:48:54;92387.00;;;17.05;100.00
68889;BME280;55930;47.412;8.790;2023-10-19T15:52:19;92374.16;;;16.86;100.00
68889;BME280;55930;47.412;8.790;2023-10-19T15:55:45;92381.41;;;16.76;100.00
68889;BME280;55930;47.412;8.790;2023-10-19T15:59:07;92390.81;;;16.60;100.00
68889;BME280;55930;47.412;8.790;2023-10-19T16:02:28;92397.81;;;16.55;100.00
68889;BME280;55930;47.412;8.790;2023-10-19T16:05:49;92405.69;;;16.53;100.00
68889;BME280;55930;47.412;8.790;2023-10-19T16:09:11;92399.91;;;16.39;100.00
68889;BME280;55930;47.412;8.790;2023-10-19T16:12:34;92409.72;;;16.20;100.00
68889;BME280;55930;47.412;8.790;2023-10-19T16:15:56;92404.53;;;16.22;100.00
68889;BME280;55930;47.412;8.790;2023-10-19T16:19:18;92402.91;;;16.26;100.00
68889;BME280;55930;47.412;8.790;2023-10-19T16:22:39;92401.63;;;16.27;100.00
68889;BME280;55930;47.412;8.790;2023-10-19T16:26:00;92412.16;;;16.25;100.00
68889;BME280;55930;47.412;8.790;2023-10-19T16:29:20;92403.31;;;16.15;100.00
68889;BME280;55930;47.412;8.790;2023-10-19T16:32:42;92413.13;;;16.13;100.00
68889;BME280;55930;47.412;8.790;2023-10-19T16:36:06;92412.66;;;16.06;100.00
68889;BME280;55930;47.412;8.790;2023-10-19T16:39:27;92405.03;;;16.03;100.00
68889;BME280;55930;47.412;8.790;2023-10-19T16:42:47;92391.84;;;15.97;100.00
68889;BME280;55930;47.412;8.790;2023-10-19T16:46:08;92399.94;;;15.90;100.00
68889;BME280;55930;47.412;8.790;2023-10-19T16:49:28;92401.63;;;15.78;100.00
68889;BME280;55930;47.412;8.790;2023-10-19T16:52:51;92395.75;;;15.79;100.00
68889;BME280;55930;47.412;8.790;2023-10-19T16:56:12;92385.38;;;15.83;100.00
68889;BME280;55930;47.412;8.790;2023-10-19T16:59:32;92382.44;;;15.72;100.00
68889;BME280;55930;47.412;8.790;2023-10-19T17:02:55;92371.72;;;15.72;100.00
68889;BME280;55930;47.412;8.790;2023-10-19T17:06:15;92366.59;;;15.66;100.00
68889;BME280;55930;47.412;8.790;2023-10-19T17:09:36;92372.53;;;15.57;100.00
68889;BME280;55930;47.412;8.790;2023-10-19T17:12:56;92366.81;;;15.60;100.00
68889;BME280;55930;47.412;8.790;2023-10-19T17:16:19;92362.72;;;15.59;100.00
68889;BME280;55930;47.412;8.790;2023-10-19T17:19:39;92358.25;;;15.62;100.00
68889;BME280;55930;47.412;8.790;2023-10-19T17:23:00;92347.22;;;15.58;100.00
68889;BME280;55930;47.412;8.790;2023-10-19T17:26:21;92348.34;;;15.47;100.00
68889;BME280;55930;47.412;8.790;2023-10-19T17:29:41;92365.59;;;15.54;100.00
68889;BME280;55930;47.412;8.790;2023-10-19T17:33:02;92367.75;;;15.55;100.00
68889;BME280;55930;47.412;8.790;2023-10-19T17:36:23;92376.47;;;15.56;100.00
68889;BME280;55930;47.412;8.790;2023-10-19T17:39:43;92370.78;;;15.44;100.00
68889;BME280;55930;47.412;8.790;2023-10-19T17:43:03;92373.16;;;15.40;100.00
68889;BME280;55930;47.412;8.790;2023-10-19T17:46:24;92371.88;;;15.41;100.00
68889;BME280;55930;47.412;8.790;2023-10-19T17:49:46;92370.97;;;15.46;100.00
68889;BME280;55930;47.412;8.790;2023-10-19T17:53:07;92380.06;;;15.43;100.00
68889;BME280;55930;47.412;8.790;2023-10-19T17:56:28;92380.06;;;15.43;100.00